createdAt,value
2016-11-27T00:00:12.956Z,1012.27
2016-11-27T00:00:53.499Z,1012.23
2016-11-27T00:01:34.052Z,1012.24
2016-11-27T00:02:14.604Z,1012.27
2016-11-27T00:02:55.151Z,1012.25
2016-11-27T00:03:35.689Z,1012.26
2016-11-27T00:04:16.237Z,1012.25
2016-11-27T00:04:56.790Z,1012.22
2016-11-27T00:05:37.342Z,1012.23
2016-11-27T00:06:17.889Z,1012.24
2016-11-27T00:06:58.431Z,1012.21
2016-11-27T00:07:38.975Z,1012.18
2016-11-27T00:08:19.523Z,1012.23
2016-11-27T00:09:00.066Z,1012.25
2016-11-27T00:09:40.618Z,1012.25
2016-11-27T00:10:21.156Z,1012.25
2016-11-27T00:11:01.700Z,1012.25
2016-11-27T00:11:42.243Z,1012.25
2016-11-27T00:12:22.783Z,1012.24
2016-11-27T00:13:03.322Z,1012.28
2016-11-27T00:13:43.875Z,1012.25
2016-11-27T00:14:24.419Z,1012.26
2016-11-27T00:15:04.954Z,1012.26
2016-11-27T00:15:45.514Z,1012.3
2016-11-27T00:16:26.065Z,1012.29
2016-11-27T00:17:06.606Z,1012.31
2016-11-27T00:17:47.143Z,1012.32
2016-11-27T00:18:27.708Z,1012.29
2016-11-27T00:19:08.259Z,1012.26
2016-11-27T00:19:48.804Z,1012.23
2016-11-27T00:20:29.351Z,1012.25
2016-11-27T00:21:09.901Z,1012.24
2016-11-27T00:21:50.452Z,1012.24
2016-11-27T00:22:30.990Z,1012.23
2016-11-27T00:23:11.530Z,1012.24
2016-11-27T00:23:52.056Z,1012.22
2016-11-27T00:24:32.600Z,1012.19
2016-11-27T00:25:13.143Z,1012.17
2016-11-27T00:25:53.704Z,1012.17
2016-11-27T00:26:34.250Z,1012.18
2016-11-27T00:27:14.793Z,1012.17
2016-11-27T00:27:55.345Z,1012.2
2016-11-27T00:28:35.903Z,1012.15
2016-11-27T00:29:16.445Z,1012.16
2016-11-27T00:29:56.988Z,1012.18
2016-11-27T00:30:37.527Z,1012.15
2016-11-27T00:31:18.070Z,1012.14
2016-11-27T00:31:58.615Z,1012.15
2016-11-27T00:32:39.155Z,1012.14
2016-11-27T00:33:19.711Z,1012.14
2016-11-27T00:34:00.243Z,1012.14
2016-11-27T00:34:40.815Z,1012.14
2016-11-27T00:35:21.373Z,1012.14
2016-11-27T00:36:01.918Z,1012.15
2016-11-27T00:36:42.465Z,1012.1
2016-11-27T00:37:23.010Z,1012.12
2016-11-27T00:38:03.567Z,1012.13
2016-11-27T00:38:44.102Z,1012.15
2016-11-27T00:39:24.654Z,1012.14
2016-11-27T00:40:05.194Z,1012.13
2016-11-27T00:40:45.740Z,1012.16
2016-11-27T00:41:26.275Z,1012.16
2016-11-27T00:42:06.820Z,1012.16
2016-11-27T00:42:47.362Z,1012.17
2016-11-27T00:43:27.908Z,1012.15
2016-11-27T00:44:08.451Z,1012.13
2016-11-27T00:44:48.993Z,1012.15
2016-11-27T00:45:29.536Z,1012.15
2016-11-27T00:46:10.086Z,1012.1
2016-11-27T00:46:50.633Z,1012.12
2016-11-27T00:47:31.180Z,1012.13
2016-11-27T00:48:11.744Z,1012.13
2016-11-27T00:48:52.289Z,1012.16
2016-11-27T00:49:32.839Z,1012.1
2016-11-27T00:50:13.390Z,1012.14
2016-11-27T00:50:53.934Z,1012.15
2016-11-27T00:51:34.487Z,1012.13
2016-11-27T00:52:15.027Z,1012.15
2016-11-27T00:52:55.575Z,1012.15
2016-11-27T00:53:36.114Z,1012.12
2016-11-27T00:54:16.656Z,1012.15
2016-11-27T00:54:57.201Z,1012.15
2016-11-27T00:55:37.741Z,1012.1
2016-11-27T00:56:18.283Z,1012.1
2016-11-27T00:56:58.854Z,1012.11
2016-11-27T00:57:39.397Z,1012.07
2016-11-27T00:58:19.945Z,1012.11
2016-11-27T00:59:00.494Z,1012.08
2016-11-27T00:59:41.030Z,1012.06
2016-11-27T01:00:21.572Z,1012.07
2016-11-27T01:01:02.110Z,1012.06
2016-11-27T01:01:42.654Z,1012.07
2016-11-27T01:02:23.191Z,1012.06
2016-11-27T01:03:03.756Z,1012.09
2016-11-27T01:03:44.299Z,1012.09
2016-11-27T01:04:24.858Z,1012.08
2016-11-27T01:05:05.407Z,1012.1
2016-11-27T01:05:45.963Z,1012.06
2016-11-27T01:06:26.503Z,1012.08
2016-11-27T01:07:07.046Z,1012.06
2016-11-27T01:07:47.587Z,1012.07
2016-11-27T01:08:28.127Z,1012.04
2016-11-27T01:09:08.664Z,1012.07
2016-11-27T01:09:49.203Z,1012.1
2016-11-27T01:10:29.769Z,1012.12
2016-11-27T01:11:10.302Z,1012.12
2016-11-27T01:11:50.864Z,1012.17
2016-11-27T01:12:31.410Z,1012.13
2016-11-27T01:13:11.965Z,1012.14
2016-11-27T01:13:52.502Z,1012.12
2016-11-27T01:14:33.041Z,1012.15
2016-11-27T01:15:13.593Z,1012.17
2016-11-27T01:15:54.141Z,1012.13
2016-11-27T01:16:34.706Z,1012.16
2016-11-27T01:17:15.250Z,1012.12
2016-11-27T01:17:55.785Z,1012.22
2016-11-27T01:18:36.322Z,1012.2
2016-11-27T01:19:16.878Z,1012.24
2016-11-27T01:19:57.431Z,1012.21
2016-11-27T01:20:37.972Z,1012.23
2016-11-27T01:21:18.505Z,1012.24
2016-11-27T01:21:59.045Z,1012.22
2016-11-27T01:22:39.587Z,1012.23
2016-11-27T01:23:20.126Z,1012.24
2016-11-27T01:24:00.683Z,1012.24
2016-11-27T01:24:41.229Z,1012.21
2016-11-27T01:25:21.784Z,1012.23
2016-11-27T01:26:02.332Z,1012.24
2016-11-27T01:26:42.887Z,1012.27
2016-11-27T01:27:23.439Z,1012.27
2016-11-27T01:28:03.985Z,1012.28
2016-11-27T01:28:44.529Z,1012.28
2016-11-27T01:29:25.064Z,1012.27
2016-11-27T01:30:05.616Z,1012.31
2016-11-27T01:30:46.162Z,1012.32
2016-11-27T01:31:26.733Z,1012.29
2016-11-27T01:32:07.274Z,1012.32
2016-11-27T01:32:47.819Z,1012.29
2016-11-27T01:33:28.366Z,1012.33
2016-11-27T01:34:08.930Z,1012.31
2016-11-27T01:34:49.454Z,1012.29
2016-11-27T01:35:30.000Z,1012.3
2016-11-27T01:36:10.552Z,1012.26
2016-11-27T01:36:51.088Z,1012.3
2016-11-27T01:37:31.633Z,1012.28
2016-11-27T01:38:12.170Z,1012.3
2016-11-27T01:38:52.714Z,1012.27
2016-11-27T01:39:33.255Z,1012.36
2016-11-27T01:40:13.800Z,1012.31
2016-11-27T01:40:54.346Z,1012.32
2016-11-27T01:41:34.910Z,1012.3
2016-11-27T01:42:15.462Z,1012.34
2016-11-27T01:42:56.007Z,1012.32
2016-11-27T01:43:36.557Z,1012.36
2016-11-27T01:44:17.090Z,1012.36
2016-11-27T01:44:57.640Z,1012.35
2016-11-27T01:45:38.176Z,1012.37
2016-11-27T01:46:18.720Z,1012.44
2016-11-27T01:46:59.265Z,1012.4
2016-11-27T01:47:39.820Z,1012.44
2016-11-27T01:48:20.362Z,1012.45
2016-11-27T01:49:00.912Z,1012.46
2016-11-27T01:49:41.479Z,1012.45
2016-11-27T01:50:22.042Z,1012.45
2016-11-27T01:51:02.585Z,1012.47
2016-11-27T01:51:43.125Z,1012.46
2016-11-27T01:52:23.671Z,1012.47
2016-11-27T01:53:04.208Z,1012.47
2016-11-27T01:53:44.756Z,1012.5
2016-11-27T01:54:25.305Z,1012.53
2016-11-27T01:55:05.855Z,1012.49
2016-11-27T01:55:46.400Z,1012.54
2016-11-27T01:56:26.944Z,1012.5
2016-11-27T01:57:07.508Z,1012.47
2016-11-27T01:57:48.057Z,1012.51
2016-11-27T01:58:28.609Z,1012.5
2016-11-27T01:59:09.144Z,1012.52
2016-11-27T01:59:49.691Z,1012.54
2016-11-27T02:00:30.226Z,1012.53
2016-11-27T02:01:10.770Z,1012.5
2016-11-27T02:01:51.318Z,1012.51
2016-11-27T02:02:31.853Z,1012.55
2016-11-27T02:03:12.385Z,1012.56
2016-11-27T02:03:52.937Z,1012.59
2016-11-27T02:04:33.489Z,1012.59
2016-11-27T02:05:14.038Z,1012.57
2016-11-27T02:05:54.581Z,1012.6
2016-11-27T02:06:35.123Z,1012.63
2016-11-27T02:07:15.667Z,1012.58
2016-11-27T02:07:56.217Z,1012.61
2016-11-27T02:08:36.754Z,1012.62
2016-11-27T02:09:17.301Z,1012.55
2016-11-27T02:09:57.843Z,1012.64
2016-11-27T02:10:38.376Z,1012.58
2016-11-27T02:11:18.942Z,1012.62
2016-11-27T02:11:59.499Z,1012.52
2016-11-27T02:12:40.037Z,1012.53
2016-11-27T02:13:20.588Z,1012.53
2016-11-27T02:14:01.134Z,1012.48
2016-11-27T02:14:41.679Z,1012.48
2016-11-27T02:15:22.223Z,1012.47
2016-11-27T02:16:02.782Z,1012.44
2016-11-27T02:16:43.326Z,1012.44
2016-11-27T02:17:23.878Z,1012.4
2016-11-27T02:18:04.425Z,1012.41
2016-11-27T02:18:44.984Z,1012.39
2016-11-27T02:19:25.541Z,1012.36
2016-11-27T02:20:06.082Z,1012.38
2016-11-27T02:20:46.633Z,1012.33
2016-11-27T02:21:27.171Z,1012.37
2016-11-27T02:22:07.707Z,1012.34
2016-11-27T02:22:48.239Z,1012.37
2016-11-27T02:23:28.788Z,1012.38
2016-11-27T02:24:09.333Z,1012.34
2016-11-27T02:24:49.899Z,1012.38
2016-11-27T02:25:30.447Z,1012.39
2016-11-27T02:26:11.007Z,1012.38
2016-11-27T02:26:51.547Z,1012.38
2016-11-27T02:27:32.088Z,1012.38
2016-11-27T02:28:12.636Z,1012.42
2016-11-27T02:28:53.180Z,1012.42
2016-11-27T02:29:33.723Z,1012.42
2016-11-27T02:30:14.269Z,1012.35
2016-11-27T02:30:54.816Z,1012.36
2016-11-27T02:31:35.369Z,1012.36
2016-11-27T02:32:15.921Z,1012.32
2016-11-27T02:32:56.950Z,1012.35
2016-11-27T02:33:37.001Z,1012.33
2016-11-27T02:34:17.558Z,1012.33
2016-11-27T02:34:58.092Z,1012.32
2016-11-27T02:35:38.647Z,1012.36
2016-11-27T02:36:19.184Z,1012.37
2016-11-27T02:36:59.736Z,1012.38
2016-11-27T02:37:40.275Z,1012.37
2016-11-27T02:38:20.809Z,1012.37
2016-11-27T02:39:01.356Z,1012.39
2016-11-27T02:39:41.919Z,1012.34
2016-11-27T02:40:22.459Z,1012.34
2016-11-27T02:41:03.017Z,1012.35
2016-11-27T02:41:43.571Z,1012.31
2016-11-27T02:42:24.111Z,1012.32
2016-11-27T02:43:04.652Z,1012.31
2016-11-27T02:43:45.197Z,1012.27
2016-11-27T02:44:25.731Z,1012.3
2016-11-27T02:45:06.275Z,1012.33
2016-11-27T02:45:46.822Z,1012.34
2016-11-27T02:46:27.359Z,1012.36
2016-11-27T02:47:07.913Z,1012.36
2016-11-27T02:47:48.451Z,1012.33
2016-11-27T02:48:28.990Z,1012.38
2016-11-27T02:49:09.540Z,1012.36
2016-11-27T02:49:50.087Z,1012.34
2016-11-27T02:50:30.621Z,1012.41
2016-11-27T02:51:11.156Z,1012.43
2016-11-27T02:51:51.699Z,1012.38
2016-11-27T02:52:32.246Z,1012.36
2016-11-27T02:53:12.790Z,1012.43
2016-11-27T02:53:53.328Z,1012.41
2016-11-27T02:54:33.863Z,1012.39
2016-11-27T02:55:14.414Z,1012.31
2016-11-27T02:55:54.970Z,1012.37
2016-11-27T02:56:35.523Z,1012.36
2016-11-27T02:57:16.064Z,1012.31
2016-11-27T02:57:56.598Z,1012.34
2016-11-27T02:58:37.148Z,1012.34
2016-11-27T02:59:17.703Z,1012.32
2016-11-27T02:59:58.244Z,1012.35
2016-11-27T03:00:38.794Z,1012.32
2016-11-27T03:01:19.331Z,1012.31
2016-11-27T03:01:59.867Z,1012.3
2016-11-27T03:02:40.413Z,1012.31
2016-11-27T03:03:20.955Z,1012.35
2016-11-27T03:04:01.502Z,1012.36
2016-11-27T03:04:42.040Z,1012.36
2016-11-27T03:05:22.583Z,1012.31
2016-11-27T03:06:03.109Z,1012.38
2016-11-27T03:06:43.674Z,1012.41
2016-11-27T03:07:24.219Z,1012.45
2016-11-27T03:08:05.312Z,1012.44
2016-11-27T03:08:45.853Z,1012.46
2016-11-27T03:09:26.403Z,1012.48
2016-11-27T03:10:06.951Z,1012.49
2016-11-27T03:10:47.501Z,1012.51
2016-11-27T03:11:28.044Z,1012.52
2016-11-27T03:12:08.586Z,1012.47
2016-11-27T03:12:49.123Z,1012.47
2016-11-27T03:13:29.690Z,1012.41
2016-11-27T03:14:10.243Z,1012.42
2016-11-27T03:14:50.794Z,1012.42
2016-11-27T03:15:31.342Z,1012.43
2016-11-27T03:16:11.890Z,1012.39
2016-11-27T03:16:52.425Z,1012.43
2016-11-27T03:17:32.962Z,1012.46
2016-11-27T03:18:13.507Z,1012.46
2016-11-27T03:18:54.047Z,1012.53
2016-11-27T03:19:34.609Z,1012.51
2016-11-27T03:20:15.158Z,1012.51
2016-11-27T03:20:55.727Z,1012.51
2016-11-27T03:21:36.267Z,1012.52
2016-11-27T03:22:16.800Z,1012.43
2016-11-27T03:22:57.346Z,1012.47
2016-11-27T03:23:37.886Z,1012.45
2016-11-27T03:24:18.433Z,1012.43
2016-11-27T03:24:58.977Z,1012.44
2016-11-27T03:25:39.515Z,1012.42
2016-11-27T03:26:20.057Z,1012.42
2016-11-27T03:27:00.606Z,1012.43
2016-11-27T03:27:41.153Z,1012.43
2016-11-27T03:28:21.702Z,1012.44
2016-11-27T03:29:02.243Z,1012.42
2016-11-27T03:29:42.806Z,1012.45
2016-11-27T03:30:23.356Z,1012.43
2016-11-27T03:31:03.906Z,1012.45
2016-11-27T03:31:44.438Z,1012.45
2016-11-27T03:32:24.975Z,1012.44
2016-11-27T03:33:05.519Z,1012.45
2016-11-27T03:33:46.056Z,1012.44
2016-11-27T03:34:26.601Z,1012.47
2016-11-27T03:35:07.150Z,1012.47
2016-11-27T03:35:47.686Z,1012.48
2016-11-27T03:36:28.234Z,1012.47
2016-11-27T03:37:08.777Z,1012.51
2016-11-27T03:37:49.318Z,1012.54
2016-11-27T03:38:29.863Z,1012.51
2016-11-27T03:39:10.405Z,1012.59
2016-11-27T03:39:50.940Z,1012.51
2016-11-27T03:40:31.477Z,1012.59
2016-11-27T03:41:12.016Z,1012.59
2016-11-27T03:41:52.558Z,1012.56
2016-11-27T03:42:33.098Z,1012.51
2016-11-27T03:43:13.651Z,1012.6
2016-11-27T03:43:54.196Z,1012.61
2016-11-27T03:44:34.742Z,1012.57
2016-11-27T03:45:15.290Z,1012.56
2016-11-27T03:45:55.837Z,1012.58
2016-11-27T03:46:36.381Z,1012.56
2016-11-27T03:47:16.921Z,1012.59
2016-11-27T03:47:57.471Z,1012.56
2016-11-27T03:48:38.025Z,1012.52
2016-11-27T03:49:18.572Z,1012.53
2016-11-27T03:49:59.112Z,1012.52
2016-11-27T03:50:39.662Z,1012.53
2016-11-27T03:51:20.195Z,1012.5
2016-11-27T03:52:00.736Z,1012.55
2016-11-27T03:52:41.270Z,1012.54
2016-11-27T03:53:21.812Z,1012.53
2016-11-27T03:54:02.354Z,1012.53
2016-11-27T03:54:42.920Z,1012.53
2016-11-27T03:55:23.462Z,1012.5
2016-11-27T03:56:04.023Z,1012.54
2016-11-27T03:56:44.565Z,1012.46
2016-11-27T03:57:25.119Z,1012.46
2016-11-27T03:58:05.677Z,1012.45
2016-11-27T03:58:46.219Z,1012.44
2016-11-27T03:59:26.768Z,1012.43
2016-11-27T04:00:07.308Z,1012.41
2016-11-27T04:00:47.851Z,1012.38
2016-11-27T04:01:28.404Z,1012.41
2016-11-27T04:02:08.940Z,1012.38
2016-11-27T04:02:49.487Z,1012.45
2016-11-27T04:03:30.022Z,1012.43
2016-11-27T04:04:10.571Z,1012.45
2016-11-27T04:04:51.131Z,1012.46
2016-11-27T04:05:31.685Z,1012.42
2016-11-27T04:06:12.219Z,1012.43
2016-11-27T04:06:52.765Z,1012.4
2016-11-27T04:07:33.303Z,1012.4
2016-11-27T04:08:13.850Z,1012.41
2016-11-27T04:08:54.391Z,1012.32
2016-11-27T04:09:34.931Z,1012.3
2016-11-27T04:10:15.467Z,1012.27
2016-11-27T04:10:56.006Z,1012.29
2016-11-27T04:11:36.548Z,1012.34
2016-11-27T04:12:17.109Z,1012.38
2016-11-27T04:12:57.664Z,1012.36
2016-11-27T04:13:38.200Z,1012.38
2016-11-27T04:14:18.744Z,1012.38
2016-11-27T04:14:59.299Z,1012.41
2016-11-27T04:15:39.836Z,1012.43
2016-11-27T04:16:20.387Z,1012.36
2016-11-27T04:17:00.949Z,1012.34
2016-11-27T04:17:41.491Z,1012.35
2016-11-27T04:18:22.036Z,1012.34
2016-11-27T04:19:02.574Z,1012.37
2016-11-27T04:19:43.125Z,1012.48
2016-11-27T04:20:23.669Z,1012.47
2016-11-27T04:21:04.208Z,1012.42
2016-11-27T04:21:44.769Z,1012.45
2016-11-27T04:22:25.316Z,1012.4
2016-11-27T04:23:05.860Z,1012.42
2016-11-27T04:23:46.406Z,1012.46
2016-11-27T04:24:26.951Z,1012.43
2016-11-27T04:25:07.495Z,1012.44
2016-11-27T04:25:48.055Z,1012.46
2016-11-27T04:26:28.600Z,1012.44
2016-11-27T04:27:09.155Z,1012.45
2016-11-27T04:27:49.715Z,1012.51
2016-11-27T04:28:30.270Z,1012.56
2016-11-27T04:29:10.813Z,1012.55
2016-11-27T04:29:51.353Z,1012.52
2016-11-27T04:30:31.889Z,1012.52
2016-11-27T04:31:12.433Z,1012.55
2016-11-27T04:31:52.973Z,1012.53
2016-11-27T04:32:33.525Z,1012.46
2016-11-27T04:33:14.070Z,1012.46
2016-11-27T04:33:54.622Z,1012.49
2016-11-27T04:34:35.168Z,1012.43
2016-11-27T04:35:15.718Z,1012.51
2016-11-27T04:35:56.267Z,1012.48
2016-11-27T04:36:36.814Z,1012.47
2016-11-27T04:37:17.352Z,1012.5
2016-11-27T04:37:57.897Z,1012.5
2016-11-27T04:38:38.437Z,1012.46
2016-11-27T04:39:18.983Z,1012.47
2016-11-27T04:39:59.532Z,1012.49
2016-11-27T04:40:40.081Z,1012.49
2016-11-27T04:41:20.621Z,1012.53
2016-11-27T04:42:01.175Z,1012.51
2016-11-27T04:42:41.737Z,1012.52
2016-11-27T04:43:22.283Z,1012.54
2016-11-27T04:44:02.823Z,1012.54
2016-11-27T04:44:43.364Z,1012.56
2016-11-27T04:45:23.901Z,1012.58
2016-11-27T04:46:04.445Z,1012.59
2016-11-27T04:46:45.002Z,1012.58
2016-11-27T04:47:25.539Z,1012.54
2016-11-27T04:48:06.087Z,1012.57
2016-11-27T04:48:46.634Z,1012.56
2016-11-27T04:49:27.186Z,1012.52
2016-11-27T04:50:07.747Z,1012.5
2016-11-27T04:50:48.291Z,1012.51
2016-11-27T04:51:28.834Z,1012.5
2016-11-27T04:52:09.385Z,1012.55
2016-11-27T04:52:49.919Z,1012.51
2016-11-27T04:53:30.469Z,1012.54
2016-11-27T04:54:11.016Z,1012.5
2016-11-27T04:54:51.547Z,1012.52
2016-11-27T04:55:32.093Z,1012.47
2016-11-27T04:56:12.638Z,1012.49
2016-11-27T04:56:53.189Z,1012.5
2016-11-27T04:57:33.746Z,1012.51
2016-11-27T04:58:14.275Z,1012.52
2016-11-27T04:58:54.819Z,1012.51
2016-11-27T04:59:35.355Z,1012.53
2016-11-27T05:00:15.899Z,1012.57
2016-11-27T05:00:56.449Z,1012.55
2016-11-27T05:01:37.011Z,1012.56
2016-11-27T05:02:17.551Z,1012.56
2016-11-27T05:02:58.113Z,1012.53
2016-11-27T05:03:38.649Z,1012.48
2016-11-27T05:04:19.201Z,1012.48
2016-11-27T05:04:59.753Z,1012.53
2016-11-27T05:05:40.302Z,1012.45
2016-11-27T05:06:20.841Z,1012.5
2016-11-27T05:07:01.387Z,1012.49
2016-11-27T05:07:41.927Z,1012.5
2016-11-27T05:08:22.476Z,1012.49
2016-11-27T05:09:03.021Z,1012.54
2016-11-27T05:09:43.567Z,1012.48
2016-11-27T05:10:24.111Z,1012.5
2016-11-27T05:11:04.664Z,1012.5
2016-11-27T05:11:45.210Z,1012.49
2016-11-27T05:12:25.765Z,1012.52
2016-11-27T05:13:06.306Z,1012.49
2016-11-27T05:13:46.864Z,1012.58
2016-11-27T05:14:27.412Z,1012.59
2016-11-27T05:15:07.958Z,1012.59
2016-11-27T05:15:48.498Z,1012.6
2016-11-27T05:16:29.035Z,1012.56
2016-11-27T05:17:09.577Z,1012.59
2016-11-27T05:17:50.122Z,1012.55
2016-11-27T05:18:30.660Z,1012.57
2016-11-27T05:19:11.217Z,1012.57
2016-11-27T05:19:51.776Z,1012.57
2016-11-27T05:20:32.313Z,1012.51
2016-11-27T05:21:12.861Z,1012.56
2016-11-27T05:21:53.397Z,1012.55
2016-11-27T05:22:33.936Z,1012.56
2016-11-27T05:23:14.476Z,1012.56
2016-11-27T05:23:55.023Z,1012.58
2016-11-27T05:24:35.568Z,1012.58
2016-11-27T05:25:16.129Z,1012.67
2016-11-27T05:25:56.672Z,1012.62
2016-11-27T05:26:37.209Z,1012.68
2016-11-27T05:27:17.759Z,1012.72
2016-11-27T05:27:58.311Z,1012.69
2016-11-27T05:28:38.854Z,1012.67
2016-11-27T05:29:19.394Z,1012.65
2016-11-27T05:29:59.946Z,1012.65
2016-11-27T05:30:40.483Z,1012.66
2016-11-27T05:31:21.038Z,1012.68
2016-11-27T05:32:01.577Z,1012.65
2016-11-27T05:32:42.147Z,1012.67
2016-11-27T05:33:22.679Z,1012.68
2016-11-27T05:34:03.245Z,1012.76
2016-11-27T05:34:43.802Z,1012.77
2016-11-27T05:35:24.357Z,1012.78
2016-11-27T05:36:04.900Z,1012.7
2016-11-27T05:36:45.437Z,1012.69
2016-11-27T05:37:25.980Z,1012.67
2016-11-27T05:38:06.521Z,1012.71
2016-11-27T05:38:47.063Z,1012.65
2016-11-27T05:39:27.605Z,1012.65
2016-11-27T05:40:08.150Z,1012.72
2016-11-27T05:40:48.698Z,1012.75
2016-11-27T05:41:29.257Z,1012.78
2016-11-27T05:42:09.803Z,1012.78
2016-11-27T05:42:50.331Z,1012.87
2016-11-27T05:43:30.868Z,1012.81
2016-11-27T05:44:11.402Z,1012.8
2016-11-27T05:44:51.952Z,1012.78
2016-11-27T05:45:32.493Z,1012.78
2016-11-27T05:46:13.063Z,1012.73
2016-11-27T05:46:53.606Z,1012.67
2016-11-27T05:47:34.167Z,1012.75
2016-11-27T05:48:14.710Z,1012.81
2016-11-27T05:48:55.262Z,1012.82
2016-11-27T05:49:35.816Z,1012.83
2016-11-27T05:50:16.353Z,1012.83
2016-11-27T05:50:56.903Z,1012.86
2016-11-27T05:51:37.438Z,1012.82
2016-11-27T05:52:17.977Z,1012.87
2016-11-27T05:52:58.524Z,1012.87
2016-11-27T05:53:39.069Z,1012.9
2016-11-27T05:54:19.602Z,1012.88
2016-11-27T05:55:00.139Z,1012.9
2016-11-27T05:55:40.684Z,1012.91
2016-11-27T05:56:21.236Z,1012.85
2016-11-27T05:57:01.798Z,1012.88
2016-11-27T05:57:42.344Z,1012.88
2016-11-27T05:58:22.887Z,1012.93
2016-11-27T05:59:03.437Z,1012.97
2016-11-27T05:59:43.982Z,1012.98
2016-11-27T06:00:24.523Z,1013
2016-11-27T06:01:05.076Z,1013.02
2016-11-27T06:01:45.627Z,1013
2016-11-27T06:02:26.182Z,1012.95
2016-11-27T06:03:06.732Z,1013.05
2016-11-27T06:03:47.281Z,1012.99
2016-11-27T06:04:27.837Z,1013.02
2016-11-27T06:05:08.382Z,1013.01
2016-11-27T06:05:48.922Z,1013
2016-11-27T06:06:29.471Z,1013.01
2016-11-27T06:07:10.011Z,1013.02
2016-11-27T06:07:50.560Z,1013
2016-11-27T06:08:31.095Z,1012.98
2016-11-27T06:09:11.644Z,1012.97
2016-11-27T06:09:52.189Z,1012.99
2016-11-27T06:10:32.741Z,1013.02
2016-11-27T06:11:13.284Z,1013.01
2016-11-27T06:11:53.847Z,1013.02
2016-11-27T06:12:34.398Z,1013.03
2016-11-27T06:13:14.932Z,1013.03
2016-11-27T06:13:55.469Z,1013.04
2016-11-27T06:14:36.009Z,1013.03
2016-11-27T06:15:16.553Z,1013.09
2016-11-27T06:15:57.094Z,1013.12
2016-11-27T06:16:37.643Z,1013.12
2016-11-27T06:17:18.192Z,1013.14
2016-11-27T06:17:58.735Z,1013.14
2016-11-27T06:18:39.307Z,1013.08
2016-11-27T06:19:19.857Z,1013.08
2016-11-27T06:20:00.395Z,1013.14
2016-11-27T06:20:40.935Z,1013.1
2016-11-27T06:21:21.487Z,1013.13
2016-11-27T06:22:02.041Z,1013.15
2016-11-27T06:22:42.594Z,1013.14
2016-11-27T06:23:23.141Z,1013.1
2016-11-27T06:24:03.687Z,1013.15
2016-11-27T06:24:44.226Z,1013.13
2016-11-27T06:25:24.768Z,1013.22
2016-11-27T06:26:05.311Z,1013.18
2016-11-27T06:26:45.860Z,1013.23
2016-11-27T06:27:26.404Z,1013.24
2016-11-27T06:28:06.951Z,1013.19
2016-11-27T06:28:47.500Z,1013.19
2016-11-27T06:29:28.041Z,1013.18
2016-11-27T06:30:08.586Z,1013.15
2016-11-27T06:30:49.135Z,1013.19
2016-11-27T06:31:29.681Z,1013.17
2016-11-27T06:32:10.221Z,1013.16
2016-11-27T06:32:50.767Z,1013.15
2016-11-27T06:33:31.321Z,1013.19
2016-11-27T06:34:11.874Z,1013.21
2016-11-27T06:34:52.421Z,1013.25
2016-11-27T06:35:32.966Z,1013.29
2016-11-27T06:36:13.515Z,1013.24
2016-11-27T06:36:54.044Z,1013.25
2016-11-27T06:37:34.598Z,1013.21
2016-11-27T06:38:15.150Z,1013.23
2016-11-27T06:38:55.696Z,1013.29
2016-11-27T06:39:36.236Z,1013.25
2016-11-27T06:40:16.774Z,1013.26
2016-11-27T06:40:57.336Z,1013.36
2016-11-27T06:41:37.883Z,1013.3
2016-11-27T06:42:18.431Z,1013.25
2016-11-27T06:42:58.965Z,1013.28
2016-11-27T06:43:39.510Z,1013.25
2016-11-27T06:44:20.042Z,1013.3
2016-11-27T06:45:00.594Z,1013.33
2016-11-27T06:45:41.133Z,1013.3
2016-11-27T06:46:21.683Z,1013.35
2016-11-27T06:47:02.211Z,1013.27
2016-11-27T06:47:42.761Z,1013.3
2016-11-27T06:48:23.306Z,1013.32
2016-11-27T06:49:03.868Z,1013.29
2016-11-27T06:49:44.408Z,1013.32
2016-11-27T06:50:24.959Z,1013.33
2016-11-27T06:51:05.504Z,1013.37
2016-11-27T06:51:46.056Z,1013.39
2016-11-27T06:52:26.611Z,1013.38
2016-11-27T06:53:07.152Z,1013.41
2016-11-27T06:53:47.691Z,1013.39
2016-11-27T06:54:28.247Z,1013.37
2016-11-27T06:55:08.788Z,1013.36
2016-11-27T06:55:49.332Z,1013.36
2016-11-27T06:56:29.876Z,1013.35
2016-11-27T06:57:10.420Z,1013.35
2016-11-27T06:57:50.970Z,1013.38
2016-11-27T06:58:31.510Z,1013.41
2016-11-27T06:59:12.063Z,1013.39
2016-11-27T06:59:52.615Z,1013.38
2016-11-27T07:00:33.160Z,1013.42
2016-11-27T07:01:13.711Z,1013.45
2016-11-27T07:01:54.256Z,1013.41
2016-11-27T07:02:34.801Z,1013.4
2016-11-27T07:03:15.353Z,1013.38
2016-11-27T07:03:55.925Z,1013.41
2016-11-27T07:04:36.465Z,1013.34
2016-11-27T07:05:17.003Z,1013.29
2016-11-27T07:05:57.538Z,1013.32
2016-11-27T07:06:38.087Z,1013.31
2016-11-27T07:07:18.632Z,1013.38
2016-11-27T07:07:59.183Z,1013.39
2016-11-27T07:08:39.725Z,1013.42
2016-11-27T07:09:20.259Z,1013.41
2016-11-27T07:10:00.814Z,1013.44
2016-11-27T07:10:41.373Z,1013.38
2016-11-27T07:11:21.922Z,1013.45
2016-11-27T07:12:02.468Z,1013.45
2016-11-27T07:12:43.019Z,1013.4
2016-11-27T07:13:23.566Z,1013.42
2016-11-27T07:14:04.107Z,1013.41
2016-11-27T07:14:44.648Z,1013.41
2016-11-27T07:15:25.183Z,1013.41
2016-11-27T07:16:05.723Z,1013.38
2016-11-27T07:16:46.292Z,1013.4
2016-11-27T07:17:26.837Z,1013.38
2016-11-27T07:18:07.386Z,1013.38
2016-11-27T07:18:47.930Z,1013.39
2016-11-27T07:19:28.472Z,1013.39
2016-11-27T07:20:09.016Z,1013.41
2016-11-27T07:20:49.556Z,1013.41
2016-11-27T07:21:30.100Z,1013.4
2016-11-27T07:22:10.647Z,1013.45
2016-11-27T07:22:51.198Z,1013.45
2016-11-27T07:23:31.744Z,1013.45
2016-11-27T07:24:12.292Z,1013.49
2016-11-27T07:24:52.833Z,1013.49
2016-11-27T07:25:33.387Z,1013.52
2016-11-27T07:26:13.946Z,1013.52
2016-11-27T07:26:54.485Z,1013.52
2016-11-27T07:27:35.031Z,1013.53
2016-11-27T07:28:15.568Z,1013.53
2016-11-27T07:28:56.106Z,1013.54
2016-11-27T07:29:36.657Z,1013.58
2016-11-27T07:30:17.199Z,1013.56
2016-11-27T07:30:57.743Z,1013.58
2016-11-27T07:31:38.293Z,1013.61
2016-11-27T07:32:18.837Z,1013.56
2016-11-27T07:32:59.377Z,1013.55
2016-11-27T07:33:39.927Z,1013.55
2016-11-27T07:34:20.472Z,1013.54
2016-11-27T07:35:01.015Z,1013.57
2016-11-27T07:35:41.559Z,1013.55
2016-11-27T07:36:22.114Z,1013.56
2016-11-27T07:37:02.652Z,1013.63
2016-11-27T07:37:43.208Z,1013.6
2016-11-27T07:38:23.751Z,1013.62
2016-11-27T07:39:04.296Z,1013.62
2016-11-27T07:39:44.857Z,1013.6
2016-11-27T07:40:25.377Z,1013.67
2016-11-27T07:41:05.934Z,1013.68
2016-11-27T07:41:46.473Z,1013.69
2016-11-27T07:42:27.013Z,1013.69
2016-11-27T07:43:07.555Z,1013.7
2016-11-27T07:43:48.105Z,1013.71
2016-11-27T07:44:28.652Z,1013.68
2016-11-27T07:45:09.191Z,1013.73
2016-11-27T07:45:49.737Z,1013.75
2016-11-27T07:46:30.290Z,1013.77
2016-11-27T07:47:10.834Z,1013.8
2016-11-27T07:47:51.396Z,1013.76
2016-11-27T07:48:31.943Z,1013.79
2016-11-27T07:49:12.490Z,1013.83
2016-11-27T07:49:53.037Z,1013.81
2016-11-27T07:50:33.583Z,1013.84
2016-11-27T07:51:14.130Z,1013.83
2016-11-27T07:51:54.680Z,1013.83
2016-11-27T07:52:35.227Z,1013.82
2016-11-27T07:53:15.766Z,1013.81
2016-11-27T07:53:56.315Z,1013.85
2016-11-27T07:54:36.864Z,1013.87
2016-11-27T07:55:17.427Z,1013.87
2016-11-27T07:55:57.979Z,1013.88
2016-11-27T07:56:38.529Z,1013.91
2016-11-27T07:57:19.071Z,1013.93
2016-11-27T07:57:59.614Z,1013.91
2016-11-27T07:58:40.159Z,1013.92
2016-11-27T07:59:20.706Z,1013.92
2016-11-27T08:00:01.251Z,1013.87
2016-11-27T08:00:41.793Z,1013.9
2016-11-27T08:01:22.334Z,1013.91
2016-11-27T08:02:02.881Z,1013.88
2016-11-27T08:02:43.434Z,1013.86
2016-11-27T08:03:23.975Z,1013.86
2016-11-27T08:04:04.517Z,1013.84
2016-11-27T08:04:45.060Z,1013.87
2016-11-27T08:05:25.598Z,1013.88
2016-11-27T08:06:06.145Z,1013.84
2016-11-27T08:06:46.679Z,1013.84
2016-11-27T08:07:27.236Z,1013.85
2016-11-27T08:08:07.770Z,1013.84
2016-11-27T08:08:48.321Z,1013.84
2016-11-27T08:09:28.853Z,1013.84
2016-11-27T08:10:09.408Z,1013.86
2016-11-27T08:10:49.940Z,1013.86
2016-11-27T08:11:30.478Z,1013.89
2016-11-27T08:12:11.019Z,1013.9